Nearby METAR Reports

 

KSNK - Snyder/Winston, Texas, USA
Distance from station: SSE 25mi, 41km
Updated: Mon, 28-Nov-2022 11:15am CST
Clear
Clear
 Wind from SW
Wind: SW 16 mph , 26 km/h
Temperature: 55°F , 13°C
Dew Point: 36°F , 2°C
Humidity: 47%
Barometer: 29.90 inHg , 1012.5 hPa
Clouds: Clear
Visibility: 10 miles , 16 km
2022/11/28 17:15 KSNK 281715Z AUTO 23014KT 10SM CLR 13/02 A2990 RMK AO2 T01280021
KSWW - Sweetwater, Texas, USA
Distance from station: SE 56mi, 90km
Updated: Mon, 28-Nov-2022 11:15am CST
Clear
Clear
 Wind from SW
Wind: SW 17 mph , 28 km/h, Gust: 25 mph , 41 km/h
Temperature: 61°F , 16°C
Dew Point: 36°F , 2°C
Humidity: 39%
Barometer: 29.92 inHg , 1013.2 hPa
Clouds: Clear
Visibility: 10 miles , 16 km
2022/11/28 17:15 KSWW 281715Z AUTO 23015G22KT 10SM CLR 16/02 A2992 RMK AO2 T01630024
 
KLBB - Lubbock, Texas, USA
Distance from station: NW 59mi, 94km
Updated: Mon, 28-Nov-2022 10:53am CST
Mostly cloudy
Mostly cloudy
 Wind from WSW
Wind: WSW 15 mph , 24 km/h
Temperature: 54°F , 12°C
Dew Point: 34°F , 1°C
Humidity: 47%
Barometer: 29.84 inHg , 1010.5 hPa
Clouds: Mostly cloudy
Visibility: 10 miles , 16 km
Cloud details: Partly cloudy 23000 ft
Mostly cloudy 25000 ft
2022/11/28 16:53 KLBB 281653Z 24013KT 10SM SCT230 BKN250 12/01 A2984 RMK AO2 SLP091 T01170006
KPVW - Plainview, Texas, USA
Distance from station: NNW 85mi, 137km
Updated: Mon, 28-Nov-2022 11:10am CST
Clear
Clear
 Wind from W
Wind: W 10 mph , 17 km/h
Temperature: 54°F , 12°C
Dew Point: 30°F , -1°C
Humidity: 41%
Barometer: 29.80 inHg , 1009.1 hPa
Clouds: Clear
Visibility: 10 miles , 16 km
2022/11/28 17:10 KPVW 281710Z AUTO 26009KT 10SM CLR 12/M01 A2980 RMK AO2 T01211010
 
KDYS - Dyess Afb/Abilen, Texas, USA
Distance from station: ESE 88mi, 141km
Updated: Mon, 28-Nov-2022 10:55am CST
Clear
Clear
 Wind from S
Wind: S 10 mph , 17 km/h, Gust: 21 mph , 33 km/h
Temperature: 61°F , 16°C
Dew Point: 37°F , 3°C
Humidity: 42%
Barometer: 29.89 inHg , 1012.2 hPa
Clouds: Clear
Visibility: 10 miles , 16 km
2022/11/28 16:55 KDYS 281655Z AUTO 18009G18KT 10SM CLR 16/03 A2989 RMK AO2 SLP113 T01600027
KGNC - Seminole, Texas, USA
Distance from station: WSW 89mi, 144km
Updated: Mon, 28-Nov-2022 11:10am CST
Clear
Clear
 Wind from WSW
Wind: WSW 15 mph , 24 km/h, Gust: 20 mph , 31 km/h
Temperature: 57°F , 14°C
Dew Point: 32°F , 0°C
Humidity: 39%
Barometer: 29.94 inHg , 1013.9 hPa
Clouds: Clear
Visibility: 10 miles , 16 km
2022/11/28 17:10 KGNC 281710Z AUTO 24013G17KT 10SM CLR 14/00 A2994 RMK AO2 T01361003
 
KE11 - Andrews, Texas, USA
Distance from station: WSW 93mi, 149km
Updated: Mon, 28-Nov-2022 11:15am CST
Clear
Clear
 Wind from WSW
Wind: WSW 20 mph , 31 km/h, Gust: 29 mph , 46 km/h
Temperature: 59°F , 15°C
Dew Point: 25°F , -4°C
Humidity: 27%
Barometer: 29.92 inHg , 1013.2 hPa
Clouds: Clear
Visibility: 10 miles , 16 km
2022/11/28 17:15 KE11 281715Z AUTO 25017G25KT 10SM CLR 15/M04 A2992 RMK AO2 T01541044
KABI - Abilene, Texas, USA
Distance from station: ESE 96mi, 154km
Updated: Mon, 28-Nov-2022 10:52am CST
Clear
Clear
 Wind from SSW
Wind: SSW 17 mph , 28 km/h, Gust: 26 mph , 43 km/h
Temperature: 59°F , 15°C
Dew Point: 39°F , 4°C
Humidity: 48%
Barometer: 29.92 inHg , 1013.2 hPa
Clouds: Clear
Visibility: 10 miles , 16 km
2022/11/28 16:52 KABI 281652Z 20015G23KT 10SM CLR 15/04 A2992 RMK AO2 SLP125 T01500044
 
KMAF - Midland, Texas, USA
Distance from station: SW 96mi, 154km
Updated: Mon, 28-Nov-2022 10:53am CST
Clear
Clear
 Wind from SW
Wind: SW 10 mph , 17 km/h
Temperature: 57°F , 14°C
Dew Point: 30°F , -1°C
Humidity: 36%
Barometer: 29.93 inHg , 1013.5 hPa
Clouds: Clear
Visibility: 10 miles , 16 km
2022/11/28 16:53 KMAF 281653Z 22009KT 10SM CLR 14/M01 A2993 RMK AO2 SLP117 T01441011
KCDS - Childress, Texas, USA
Distance from station: NNE 110mi, 177km
Updated: Mon, 28-Nov-2022 10:53am CST
Clear
Clear
 Wind from S
Wind: S 13 mph , 20 km/h
Temperature: 54°F , 12°C
Dew Point: 39°F , 4°C
Humidity: 58%
Barometer: 29.81 inHg , 1009.5 hPa
Clouds: Clear
Visibility: 10 miles , 16 km
2022/11/28 16:53 KCDS 281653Z AUTO 19011KT 10SM CLR 12/04 A2981 RMK AO2 SLP093 T01220039
 
KSJT - San Angelo, Texas, USA
Distance from station: SSE 121mi, 194km
Updated: Mon, 28-Nov-2022 10:51am CST
Clear
Clear
 Wind from S
Wind: S 14 mph , 22 km/h
Temperature: 64°F , 18°C
Dew Point: 37°F , 3°C
Humidity: 37%
Barometer: 29.95 inHg , 1014.2 hPa
Clouds: Clear
Visibility: 10 miles , 16 km
2022/11/28 16:51 KSJT 281651Z 19012KT 10SM CLR 18/03 A2995 RMK AO2 SLP137 T01780028
KHOB - Hobbs/Lea Co., New Mexico, USA
Distance from station: WSW 122mi, 196km
Updated: Mon, 28-Nov-2022 10:50am CST
Clear
Clear
 Wind from SW
Wind: SW 20 mph , 31 km/h, Gust: 26 mph , 43 km/h
Temperature: 55°F , 13°C
Dew Point: 27°F , -3°C
Humidity: 33%
Barometer: 29.90 inHg , 1012.5 hPa
Clouds: Clear
Visibility: 10 miles , 16 km
2022/11/28 16:50 KHOB 281650Z 23017G23KT 10SM SKC 13/M03 A2990
 
KCOM - Coleman Muni, Texas, USA
Distance from station: SE 131mi, 212km
Updated: Mon, 28-Nov-2022 11:15am CST
Clear
Clear
 Wind from S
Wind: S 12 mph , 19 km/h
Temperature: 59°F , 15°C
Dew Point: 45°F , 7°C
Humidity: 59%
Barometer: 29.96 inHg , 1014.6 hPa
Clouds: Clear
Visibility: 10 miles , 16 km
2022/11/28 17:15 KCOM 281715Z AUTO 18010KT 10SM CLR 15/07 A2996 RMK AO2 T01460067
KBKD - Breckenridge, Texas, USA
Distance from station: E 134mi, 215km
Updated: Mon, 28-Nov-2022 11:15am CST
Clear
Clear
 Wind from SSW
Wind: SSW 15 mph , 24 km/h, Gust: 24 mph , 39 km/h
Temperature: 64°F , 18°C
Dew Point: 43°F , 6°C
Humidity: 46%
Barometer: 29.91 inHg , 1012.9 hPa
Clouds: Clear
Visibility: 7 miles , 11 km
2022/11/28 17:15 KBKD 281715Z AUTO 20013G21KT 7SM CLR 18/06 A2991 RMK AO2 T01820060
 
KF05 - Vernon Wilbarger, Texas, USA
Distance from station: NE 137mi, 220km
Updated: Mon, 28-Nov-2022 11:15am CST
Clear
Clear
 Wind from SSW
Wind: SSW 17 mph , 28 km/h
Temperature: 57°F , 14°C
Dew Point: 45°F , 7°C
Humidity: 63%
Barometer: 29.84 inHg , 1010.5 hPa
Clouds: Clear
Visibility: 10 miles , 16 km
2022/11/28 17:15 KF05 281715Z AUTO 21015KT 10SM CLR 14/07 A2984 RMK AO2 T01410069